createdAt,value
2023-01-26T00:02:56.012Z,76.0
2023-01-26T00:08:02.190Z,76.0
2023-01-26T00:13:08.390Z,80.0
2023-01-26T00:18:14.627Z,78.0
2023-01-26T00:23:20.808Z,78.0
2023-01-26T00:28:27.011Z,79.0
2023-01-26T00:33:33.223Z,75.0
2023-01-26T00:38:39.438Z,73.0
2023-01-26T00:43:45.633Z,73.5
2023-01-26T00:48:51.843Z,73.0
2023-01-26T00:53:58.060Z,70.5
2023-01-26T00:59:04.256Z,68.5
2023-01-26T01:04:10.461Z,63.5
2023-01-26T01:09:16.665Z,67.0
2023-01-26T01:14:22.892Z,65.0
2023-01-26T01:19:29.090Z,68.0
2023-01-26T01:24:35.298Z,65.5
2023-01-26T01:29:41.504Z,64.5
2023-01-26T01:34:47.742Z,65.5
2023-01-26T01:39:53.158Z,60.5
2023-01-26T01:44:59.159Z,63.5
2023-01-26T01:50:04.385Z,64.5
2023-01-26T01:55:10.610Z,68.5
2023-01-26T02:00:16.802Z,64.0
2023-01-26T02:05:23.023Z,65.0
2023-01-26T02:10:29.212Z,69.0
2023-01-26T02:15:35.470Z,65.0
2023-01-26T02:20:41.622Z,65.0
2023-01-26T02:25:47.837Z,63.0
2023-01-26T02:30:54.191Z,65.0
2023-01-26T02:36:00.258Z,63.5
2023-01-26T02:41:06.452Z,61.0
2023-01-26T02:46:12.730Z,63.0
2023-01-26T02:51:18.885Z,61.0
2023-01-26T02:56:25.091Z,61.5
2023-01-26T03:01:32.603Z,63.0
2023-01-26T03:06:37.492Z,62.0
2023-01-26T03:11:43.713Z,60.0
2023-01-26T03:16:49.898Z,61.0
2023-01-26T03:21:56.122Z,57.0
2023-01-26T03:27:02.333Z,61.0
2023-01-26T03:32:08.527Z,61.0
2023-01-26T03:37:13.782Z,58.0
2023-01-26T03:42:19.979Z,57.0
2023-01-26T03:47:26.190Z,52.5
2023-01-26T03:52:31.432Z,56.0
2023-01-26T03:57:37.629Z,53.0
2023-01-26T04:02:43.824Z,53.0
2023-01-26T04:07:50.052Z,52.5
2023-01-26T04:12:56.236Z,54.0
2023-01-26T04:18:02.450Z,54.0
2023-01-26T04:23:08.648Z,50.0
2023-01-26T04:28:14.867Z,52.0
2023-01-26T04:33:21.091Z,51.5
2023-01-26T04:38:27.274Z,51.0
2023-01-26T04:43:33.479Z,49.0
2023-01-26T04:48:39.711Z,50.0
2023-01-26T04:53:45.894Z,50.0
2023-01-26T04:58:52.107Z,47.0
2023-01-26T05:03:58.352Z,46.0
2023-01-26T05:09:04.510Z,41.0
2023-01-26T05:14:10.727Z,40.0
2023-01-26T05:19:16.933Z,45.0
2023-01-26T05:24:23.206Z,41.0
2023-01-26T05:29:29.344Z,38.5
2023-01-26T05:34:34.576Z,36.0
2023-01-26T05:39:39.807Z,36.0
2023-01-26T05:44:46.019Z,34.0
2023-01-26T05:49:52.223Z,34.0
2023-01-26T05:54:57.468Z,31.0
2023-01-26T06:00:03.673Z,29.0
2023-01-26T06:05:09.867Z,29.0
2023-01-26T06:10:16.078Z,29.0
2023-01-26T06:15:22.290Z,29.0
2023-01-26T06:20:28.552Z,28.0
2023-01-26T06:25:34.702Z,28.0
2023-01-26T06:30:40.974Z,26.0
2023-01-26T06:35:47.202Z,28.0
2023-01-26T06:40:53.341Z,28.0
2023-01-26T06:45:59.566Z,28.0
2023-01-26T06:51:05.784Z,29.0
2023-01-26T06:56:11.961Z,31.0
2023-01-26T07:01:18.191Z,30.0
2023-01-26T07:06:24.385Z,29.0
2023-01-26T07:11:30.605Z,27.0
2023-01-26T07:16:36.895Z,26.0
2023-01-26T07:21:43.011Z,25.0
2023-01-26T07:26:49.224Z,26.0
2023-01-26T07:31:55.443Z,26.0
2023-01-26T07:37:01.642Z,28.0
2023-01-26T07:42:06.871Z,28.0
2023-01-26T07:47:13.166Z,30.0
2023-01-26T07:52:18.314Z,30.0
2023-01-26T07:57:24.530Z,31.0
2023-01-26T08:02:30.808Z,30.0
2023-01-26T08:07:36.952Z,31.0
2023-01-26T08:12:43.155Z,32.5
2023-01-26T08:17:49.363Z,35.0
2023-01-26T08:22:55.567Z,32.0
2023-01-26T08:28:01.777Z,34.0
2023-01-26T08:33:07.984Z,31.0
2023-01-26T08:38:14.185Z,32.0
2023-01-26T08:43:20.411Z,29.0
2023-01-26T08:48:26.634Z,31.0
2023-01-26T08:53:32.823Z,31.0
2023-01-26T08:58:39.031Z,31.5
2023-01-26T09:03:45.242Z,31.0
2023-01-26T09:08:51.442Z,35.0
2023-01-26T09:13:57.654Z,33.0
2023-01-26T09:19:03.862Z,33.0
2023-01-26T09:24:10.215Z,35.5
2023-01-26T09:29:16.269Z,39.0
2023-01-26T09:34:22.484Z,38.5
2023-01-26T09:39:27.719Z,44.5
2023-01-26T09:44:33.921Z,39.0
2023-01-26T09:49:40.131Z,44.0
2023-01-26T09:54:46.338Z,44.0
2023-01-26T09:59:52.557Z,45.0
2023-01-26T10:04:57.778Z,47.0
2023-01-26T10:10:04.000Z,49.0
2023-01-26T10:15:10.326Z,50.5
2023-01-26T10:20:16.403Z,55.5
2023-01-26T10:25:25.241Z,50.0
2023-01-26T10:30:28.839Z,55.5
2023-01-26T10:35:35.027Z,55.5
2023-01-26T10:40:41.258Z,56.0
2023-01-26T10:45:47.437Z,70.0
2023-01-26T10:50:53.651Z,62.5
2023-01-26T10:55:59.862Z,71.0
2023-01-26T11:01:06.059Z,78.0
2023-01-26T11:06:12.271Z,70.0
2023-01-26T11:11:18.477Z,81.0
2023-01-26T11:16:24.721Z,97.0
2023-01-26T11:21:30.894Z,99.5
2023-01-26T11:26:37.095Z,94.0
2023-01-26T11:31:43.371Z,97.5
2023-01-26T11:36:49.514Z,81.0
2023-01-26T11:41:55.722Z,95.0
2023-01-26T11:47:01.931Z,89.5
2023-01-26T11:52:07.164Z,86.0
2023-01-26T11:57:13.423Z,66.5
2023-01-26T12:02:19.602Z,58.0
2023-01-26T12:07:25.879Z,55.0
2023-01-26T12:12:32.013Z,48.5
2023-01-26T12:17:37.224Z,49.0
2023-01-26T12:22:43.430Z,44.0
2023-01-26T12:27:49.677Z,48.0
2023-01-26T12:32:55.863Z,40.0
2023-01-26T12:38:17.081Z,39.0
2023-01-26T12:43:08.263Z,38.0
2023-01-26T12:48:14.479Z,38.0
2023-01-26T12:53:20.682Z,33.5
2023-01-26T12:58:26.890Z,37.0
2023-01-26T13:03:33.097Z,33.0
2023-01-26T13:08:39.305Z,31.0
2023-01-26T13:13:45.512Z,31.0
2023-01-26T13:18:51.722Z,37.0
2023-01-26T13:23:57.987Z,30.0
2023-01-26T13:29:04.129Z,25.0
2023-01-26T13:34:10.340Z,22.0
2023-01-26T13:39:16.562Z,20.5
2023-01-26T13:44:22.759Z,22.0
2023-01-26T13:49:28.964Z,16.0
2023-01-26T13:54:35.170Z,16.5
2023-01-26T13:59:41.379Z,16.0
2023-01-26T14:04:46.621Z,14.0
2023-01-26T14:09:52.821Z,16.5
2023-01-26T14:14:58.077Z,14.0
2023-01-26T14:20:04.261Z,14.0
2023-01-26T14:25:10.954Z,14.0
2023-01-26T14:30:16.699Z,12.0
2023-01-26T14:35:22.894Z,11.0
2023-01-26T14:40:29.099Z,10.5
2023-01-26T14:45:35.408Z,13.0
2023-01-26T14:50:41.515Z,14.0
2023-01-26T14:55:47.717Z,9.5
2023-01-26T15:00:54.004Z,12.5
2023-01-26T15:06:00.200Z,10.0
2023-01-26T15:11:06.341Z,12.0
2023-01-26T15:16:12.869Z,10.5
2023-01-26T15:21:18.765Z,9.0
2023-01-26T15:26:24.967Z,11.0
2023-01-26T15:31:31.239Z,10.0
2023-01-26T15:36:37.380Z,10.0
2023-01-26T15:41:43.592Z,7.0
2023-01-26T15:46:49.851Z,7.0
2023-01-26T15:51:56.020Z,7.0
2023-01-26T15:57:02.221Z,5.0
2023-01-26T16:02:07.511Z,6.0
2023-01-26T16:07:13.669Z,6.0
2023-01-26T16:12:31.083Z,6.0
2023-01-26T16:17:25.109Z,8.0
2023-01-26T16:22:31.313Z,8.0
2023-01-26T16:27:37.545Z,6.0
2023-01-26T16:32:43.747Z,6.0
2023-01-26T16:37:50.103Z,7.0
2023-01-26T16:42:56.145Z,6.0
2023-01-26T16:48:02.365Z,5.0
2023-01-26T16:53:08.554Z,7.0
2023-01-26T16:58:14.774Z,6.0
2023-01-26T17:03:20.992Z,8.0
2023-01-26T17:08:27.193Z,9.0
2023-01-26T17:13:33.388Z,9.0
2023-01-26T17:18:39.599Z,10.0
2023-01-26T17:23:45.814Z,8.0
2023-01-26T17:28:52.017Z,9.0
2023-01-26T17:33:58.240Z,7.0
2023-01-26T17:39:04.558Z,6.0
2023-01-26T17:44:10.644Z,6.5
2023-01-26T17:49:16.859Z,8.0
2023-01-26T17:54:23.081Z,7.0
2023-01-26T17:59:28.282Z,7.0
2023-01-26T18:04:34.487Z,8.0
2023-01-26T18:09:40.701Z,5.0
2023-01-26T18:14:45.945Z,8.0
2023-01-26T18:19:52.236Z,6.5
2023-01-26T18:24:58.463Z,5.0
2023-01-26T18:30:04.561Z,9.0
2023-01-26T18:35:11.104Z,7.0
2023-01-26T18:40:16.974Z,6.5
2023-01-26T18:45:23.194Z,5.0
2023-01-26T18:50:29.402Z,8.0
2023-01-26T18:55:35.613Z,6.5
2023-01-26T19:00:41.826Z,8.0
2023-01-26T19:05:48.015Z,7.0
2023-01-26T19:10:54.234Z,7.0
2023-01-26T19:16:00.431Z,8.0
2023-01-26T19:21:06.654Z,7.0
2023-01-26T19:26:12.852Z,6.0
2023-01-26T19:31:19.308Z,6.5
2023-01-26T19:36:25.276Z,7.0
2023-01-26T19:41:31.483Z,7.0
2023-01-26T19:46:37.676Z,8.0
2023-01-26T19:51:43.889Z,7.5
2023-01-26T19:56:50.097Z,6.0
2023-01-26T20:01:56.374Z,7.5
2023-01-26T20:07:01.533Z,8.0
2023-01-26T20:12:07.746Z,10.0
2023-01-26T20:17:12.977Z,6.0
2023-01-26T20:22:19.186Z,10.0
2023-01-26T20:27:25.385Z,10.0
2023-01-26T20:32:31.625Z,13.0
2023-01-26T20:37:37.808Z,10.0
2023-01-26T20:42:44.039Z,12.0
2023-01-26T20:47:50.226Z,10.0
2023-01-26T20:52:56.424Z,8.5
2023-01-26T20:58:02.661Z,9.0
2023-01-26T21:03:08.861Z,7.0
2023-01-26T21:08:15.078Z,6.5
2023-01-26T21:13:21.264Z,9.5
2023-01-26T21:18:27.462Z,8.0
2023-01-26T21:23:33.672Z,9.0
2023-01-26T21:28:39.949Z,9.0
2023-01-26T21:33:46.094Z,9.5
2023-01-26T21:38:52.394Z,8.0
2023-01-26T21:43:58.505Z,7.5
2023-01-26T21:49:04.717Z,9.0
2023-01-26T21:54:10.918Z,8.0
2023-01-26T21:59:17.124Z,8.0
2023-01-26T22:04:22.453Z,7.0
2023-01-26T22:09:28.585Z,8.5
2023-01-26T22:14:33.822Z,9.0
2023-01-26T22:19:40.023Z,8.0
2023-01-26T22:24:46.220Z,9.0
2023-01-26T22:29:52.424Z,7.0
2023-01-26T22:34:58.745Z,10.0
2023-01-26T22:40:03.876Z,8.0
2023-01-26T22:45:10.078Z,6.0
2023-01-26T22:50:16.276Z,6.0
2023-01-26T22:55:22.482Z,7.0
2023-01-26T23:00:28.687Z,7.0
2023-01-26T23:05:34.922Z,9.0
2023-01-26T23:10:41.112Z,12.0
2023-01-26T23:15:47.317Z,10.0
2023-01-26T23:20:53.533Z,8.5
2023-01-26T23:25:59.778Z,7.0
2023-01-26T23:31:05.965Z,9.0
2023-01-26T23:36:12.148Z,8.0
2023-01-26T23:41:18.372Z,7.0
2023-01-26T23:46:24.602Z,7.0
2023-01-26T23:51:30.788Z,9.0
2023-01-26T23:56:36.980Z,8.0
